sensor_id;sensor_type;location;lat;lon;timestamp;temperature;humidity
70734;DHT22;58320;48.804;9.252;2023-07-13T00:00:35;20.40;55.50
70734;DHT22;58320;48.804;9.252;2023-07-13T00:03:02;20.40;55.50
70734;DHT22;58320;48.804;9.252;2023-07-13T00:05:28;20.40;55.60
70734;DHT22;58320;48.804;9.252;2023-07-13T00:07:54;20.30;55.50
70734;DHT22;58320;48.804;9.252;2023-07-13T00:10:20;20.20;55.50
70734;DHT22;58320;48.804;9.252;2023-07-13T00:12:47;20.20;55.70
70734;DHT22;58320;48.804;9.252;2023-07-13T00:15:16;20.20;55.70
70734;DHT22;58320;48.804;9.252;2023-07-13T00:17:53;20.10;55.80
70734;DHT22;58320;48.804;9.252;2023-07-13T00:20:20;20.00;56.20
70734;DHT22;58320;48.804;9.252;2023-07-13T00:22:48;20.00;56.10
70734;DHT22;58320;48.804;9.252;2023-07-13T00:25:15;19.90;56.20
70734;DHT22;58320;48.804;9.252;2023-07-13T00:27:43;19.90;56.40
70734;DHT22;58320;48.804;9.252;2023-07-13T00:30:10;19.80;56.20
70734;DHT22;58320;48.804;9.252;2023-07-13T00:32:36;19.80;56.20
70734;DHT22;58320;48.804;9.252;2023-07-13T00:35:03;19.70;56.60
70734;DHT22;58320;48.804;9.252;2023-07-13T00:37:30;19.60;56.50
70734;DHT22;58320;48.804;9.252;2023-07-13T00:39:56;19.60;56.40
70734;DHT22;58320;48.804;9.252;2023-07-13T00:42:21;19.60;56.40
70734;DHT22;58320;48.804;9.252;2023-07-13T00:47:43;19.50;56.80
70734;DHT22;58320;48.804;9.252;2023-07-13T00:50:12;19.40;56.90
70734;DHT22;58320;48.804;9.252;2023-07-13T00:52:43;19.30;57.20
70734;DHT22;58320;48.804;9.252;2023-07-13T00:55:11;19.20;57.80
70734;DHT22;58320;48.804;9.252;2023-07-13T00:57:38;19.10;58.30
70734;DHT22;58320;48.804;9.252;2023-07-13T01:00:05;19.10;57.90
70734;DHT22;58320;48.804;9.252;2023-07-13T01:02:36;19.10;58.10
70734;DHT22;58320;48.804;9.252;2023-07-13T01:05:16;19.00;58.90
70734;DHT22;58320;48.804;9.252;2023-07-13T01:07:44;19.00;58.70
70734;DHT22;58320;48.804;9.252;2023-07-13T01:10:11;18.90;59.00
70734;DHT22;58320;48.804;9.252;2023-07-13T01:12:38;18.90;59.00
70734;DHT22;58320;48.804;9.252;2023-07-13T01:15:05;18.90;59.00
70734;DHT22;58320;48.804;9.252;2023-07-13T01:17:33;18.80;59.20
70734;DHT22;58320;48.804;9.252;2023-07-13T01:19:59;18.80;59.90
70734;DHT22;58320;48.804;9.252;2023-07-13T01:22:25;18.70;60.00
70734;DHT22;58320;48.804;9.252;2023-07-13T01:24:53;18.70;59.90
70734;DHT22;58320;48.804;9.252;2023-07-13T01:27:25;18.60;60.10
70734;DHT22;58320;48.804;9.252;2023-07-13T01:29:52;18.60;60.40
70734;DHT22;58320;48.804;9.252;2023-07-13T01:32:20;18.50;60.50
70734;DHT22;58320;48.804;9.252;2023-07-13T01:34:50;18.50;61.20
70734;DHT22;58320;48.804;9.252;2023-07-13T01:37:19;18.40;61.10
70734;DHT22;58320;48.804;9.252;2023-07-13T01:39:45;18.40;61.40
70734;DHT22;58320;48.804;9.252;2023-07-13T01:42:11;18.30;61.50
70734;DHT22;58320;48.804;9.252;2023-07-13T01:44:36;18.20;60.30
70734;DHT22;58320;48.804;9.252;2023-07-13T01:47:02;18.30;58.90
70734;DHT22;58320;48.804;9.252;2023-07-13T01:49:28;18.30;59.10
70734;DHT22;58320;48.804;9.252;2023-07-13T01:51:54;18.30;59.00
70734;DHT22;58320;48.804;9.252;2023-07-13T01:54:20;18.30;59.30
70734;DHT22;58320;48.804;9.252;2023-07-13T01:56:45;18.30;58.20
70734;DHT22;58320;48.804;9.252;2023-07-13T01:59:11;18.40;57.80
70734;DHT22;58320;48.804;9.252;2023-07-13T02:01:37;18.40;58.10
70734;DHT22;58320;48.804;9.252;2023-07-13T02:04:03;18.40;58.20
70734;DHT22;58320;48.804;9.252;2023-07-13T02:06:29;18.30;58.30
70734;DHT22;58320;48.804;9.252;2023-07-13T02:08:55;18.30;59.30
70734;DHT22;58320;48.804;9.252;2023-07-13T02:11:21;18.20;59.10
70734;DHT22;58320;48.804;9.252;2023-07-13T02:13:46;18.20;59.10
70734;DHT22;58320;48.804;9.252;2023-07-13T02:16:12;18.10;59.20
70734;DHT22;58320;48.804;9.252;2023-07-13T02:18:38;18.10;60.00
70734;DHT22;58320;48.804;9.252;2023-07-13T02:21:04;18.10;60.70
70734;DHT22;58320;48.804;9.252;2023-07-13T02:23:29;18.00;60.70
70734;DHT22;58320;48.804;9.252;2023-07-13T02:25:56;17.90;60.60
70734;DHT22;58320;48.804;9.252;2023-07-13T02:28:23;17.90;60.10
70734;DHT22;58320;48.804;9.252;2023-07-13T02:30:48;17.90;59.60
70734;DHT22;58320;48.804;9.252;2023-07-13T02:33:14;17.90;59.50
70734;DHT22;58320;48.804;9.252;2023-07-13T02:35:40;17.90;60.30
70734;DHT22;58320;48.804;9.252;2023-07-13T02:38:06;17.80;61.10
70734;DHT22;58320;48.804;9.252;2023-07-13T02:40:32;17.80;62.70
70734;DHT22;58320;48.804;9.252;2023-07-13T02:42:59;17.70;62.90
70734;DHT22;58320;48.804;9.252;2023-07-13T02:45:25;17.60;63.70
70734;DHT22;58320;48.804;9.252;2023-07-13T02:47:51;17.50;63.90
70734;DHT22;58320;48.804;9.252;2023-07-13T02:50:17;17.40;64.30
70734;DHT22;58320;48.804;9.252;2023-07-13T02:52:43;17.40;64.60
70734;DHT22;58320;48.804;9.252;2023-07-13T02:55:09;17.30;64.40
70734;DHT22;58320;48.804;9.252;2023-07-13T02:57:34;17.20;64.50
70734;DHT22;58320;48.804;9.252;2023-07-13T03:00:02;17.10;64.90
70734;DHT22;58320;48.804;9.252;2023-07-13T03:02:31;17.10;65.10
70734;DHT22;58320;48.804;9.252;2023-07-13T03:04:57;17.10;65.40
70734;DHT22;58320;48.804;9.252;2023-07-13T03:07:23;17.00;65.40
70734;DHT22;58320;48.804;9.252;2023-07-13T03:09:55;17.00;65.60
70734;DHT22;58320;48.804;9.252;2023-07-13T03:12:22;17.00;65.20
70734;DHT22;58320;48.804;9.252;2023-07-13T03:14:48;17.00;65.40
70734;DHT22;58320;48.804;9.252;2023-07-13T03:17:14;17.00;66.10
70734;DHT22;58320;48.804;9.252;2023-07-13T03:19:39;17.00;66.40
70734;DHT22;58320;48.804;9.252;2023-07-13T03:22:05;17.00;66.40
70734;DHT22;58320;48.804;9.252;2023-07-13T03:24:33;17.00;66.10
70734;DHT22;58320;48.804;9.252;2023-07-13T03:27:01;17.10;66.30
70734;DHT22;58320;48.804;9.252;2023-07-13T03:29:29;17.10;66.10
70734;DHT22;58320;48.804;9.252;2023-07-13T03:31:55;17.20;66.20
70734;DHT22;58320;48.804;9.252;2023-07-13T03:34:20;17.30;65.70
70734;DHT22;58320;48.804;9.252;2023-07-13T03:36:46;17.30;65.50
70734;DHT22;58320;48.804;9.252;2023-07-13T03:39:12;17.40;65.30
70734;DHT22;58320;48.804;9.252;2023-07-13T03:41:37;17.50;64.70
70734;DHT22;58320;48.804;9.252;2023-07-13T03:44:03;17.60;64.60
70734;DHT22;58320;48.804;9.252;2023-07-13T03:46:29;17.70;65.00
70734;DHT22;58320;48.804;9.252;2023-07-13T03:48:55;17.80;64.60
70734;DHT22;58320;48.804;9.252;2023-07-13T03:51:23;17.80;63.90
70734;DHT22;58320;48.804;9.252;2023-07-13T03:53:55;17.90;63.10
70734;DHT22;58320;48.804;9.252;2023-07-13T03:56:21;18.00;62.80
70734;DHT22;58320;48.804;9.252;2023-07-13T03:58:48;18.00;62.40
70734;DHT22;58320;48.804;9.252;2023-07-13T04:01:16;18.10;61.70
70734;DHT22;58320;48.804;9.252;2023-07-13T04:03:43;18.20;61.20
70734;DHT22;58320;48.804;9.252;2023-07-13T04:06:15;18.20;60.90
70734;DHT22;58320;48.804;9.252;2023-07-13T04:08:53;18.30;60.90
70734;DHT22;58320;48.804;9.252;2023-07-13T04:11:20;18.30;60.60
70734;DHT22;58320;48.804;9.252;2023-07-13T04:13:48;18.30;60.50
70734;DHT22;58320;48.804;9.252;2023-07-13T04:16:16;18.30;60.40
70734;DHT22;58320;48.804;9.252;2023-07-13T04:18:43;18.30;60.10
70734;DHT22;58320;48.804;9.252;2023-07-13T04:21:10;18.30;60.40
70734;DHT22;58320;48.804;9.252;2023-07-13T04:23:37;18.40;60.10
70734;DHT22;58320;48.804;9.252;2023-07-13T04:26:03;18.40;59.90
70734;DHT22;58320;48.804;9.252;2023-07-13T04:28:30;18.40;59.90
70734;DHT22;58320;48.804;9.252;2023-07-13T04:30:56;18.50;59.50
70734;DHT22;58320;48.804;9.252;2023-07-13T04:33:22;18.50;59.10
70734;DHT22;58320;48.804;9.252;2023-07-13T04:35:50;18.50;59.40
70734;DHT22;58320;48.804;9.252;2023-07-13T04:38:22;18.60;58.50
70734;DHT22;58320;48.804;9.252;2023-07-13T04:40:50;18.60;58.80
70734;DHT22;58320;48.804;9.252;2023-07-13T04:43:16;18.60;58.40
70734;DHT22;58320;48.804;9.252;2023-07-13T04:45:42;18.50;58.40
70734;DHT22;58320;48.804;9.252;2023-07-13T04:48:08;18.50;58.20
70734;DHT22;58320;48.804;9.252;2023-07-13T04:50:36;18.50;59.10
70734;DHT22;58320;48.804;9.252;2023-07-13T04:53:03;18.40;59.60
70734;DHT22;58320;48.804;9.252;2023-07-13T04:55:29;18.30;59.20
70734;DHT22;58320;48.804;9.252;2023-07-13T04:57:56;18.30;58.80
70734;DHT22;58320;48.804;9.252;2023-07-13T05:00:24;18.20;58.50
70734;DHT22;58320;48.804;9.252;2023-07-13T05:02:51;18.30;58.60
70734;DHT22;58320;48.804;9.252;2023-07-13T05:05:17;18.30;58.90
70734;DHT22;58320;48.804;9.252;2023-07-13T05:07:43;18.30;59.10
70734;DHT22;58320;48.804;9.252;2023-07-13T05:10:09;18.40;59.30
70734;DHT22;58320;48.804;9.252;2023-07-13T05:12:35;18.40;59.10
70734;DHT22;58320;48.804;9.252;2023-07-13T05:15:02;18.40;58.30
70734;DHT22;58320;48.804;9.252;2023-07-13T05:17:28;18.50;58.10
70734;DHT22;58320;48.804;9.252;2023-07-13T05:19:54;18.60;57.50
70734;DHT22;58320;48.804;9.252;2023-07-13T05:22:19;18.80;57.30
70734;DHT22;58320;48.804;9.252;2023-07-13T05:24:45;19.00;57.20
70734;DHT22;58320;48.804;9.252;2023-07-13T05:27:11;19.20;56.60
70734;DHT22;58320;48.804;9.252;2023-07-13T05:29:36;19.30;56.30
70734;DHT22;58320;48.804;9.252;2023-07-13T05:32:02;19.40;55.00
70734;DHT22;58320;48.804;9.252;2023-07-13T05:34:29;19.50;54.80
70734;DHT22;58320;48.804;9.252;2023-07-13T05:36:55;19.50;55.10
70734;DHT22;58320;48.804;9.252;2023-07-13T05:39:20;19.60;54.20
70734;DHT22;58320;48.804;9.252;2023-07-13T05:41:46;19.60;54.50
70734;DHT22;58320;48.804;9.252;2023-07-13T05:44:12;19.70;54.20
70734;DHT22;58320;48.804;9.252;2023-07-13T05:46:38;19.70;54.40
70734;DHT22;58320;48.804;9.252;2023-07-13T05:49:04;19.70;54.30
70734;DHT22;58320;48.804;9.252;2023-07-13T05:51:29;19.80;54.70
70734;DHT22;58320;48.804;9.252;2023-07-13T05:53:55;19.70;54.30
70734;DHT22;58320;48.804;9.252;2023-07-13T05:56:21;19.70;55.30
70734;DHT22;58320;48.804;9.252;2023-07-13T05:58:48;19.60;54.80
70734;DHT22;58320;48.804;9.252;2023-07-13T06:01:15;19.60;54.20
70734;DHT22;58320;48.804;9.252;2023-07-13T06:03:41;19.60;54.10
70734;DHT22;58320;48.804;9.252;2023-07-13T06:06:09;19.50;54.30
70734;DHT22;58320;48.804;9.252;2023-07-13T06:08:36;19.50;54.50
70734;DHT22;58320;48.804;9.252;2023-07-13T06:11:07;19.60;54.30
70734;DHT22;58320;48.804;9.252;2023-07-13T06:13:36;19.70;54.50
70734;DHT22;58320;48.804;9.252;2023-07-13T06:16:03;19.80;54.30
70734;DHT22;58320;48.804;9.252;2023-07-13T06:18:31;19.80;53.80
70734;DHT22;58320;48.804;9.252;2023-07-13T06:20:58;19.90;53.90
70734;DHT22;58320;48.804;9.252;2023-07-13T06:23:24;20.00;54.00
70734;DHT22;58320;48.804;9.252;2023-07-13T06:25:50;20.20;52.80
70734;DHT22;58320;48.804;9.252;2023-07-13T06:28:16;20.40;52.60
70734;DHT22;58320;48.804;9.252;2023-07-13T06:30:42;20.50;52.60
70734;DHT22;58320;48.804;9.252;2023-07-13T06:33:08;20.60;52.70
70734;DHT22;58320;48.804;9.252;2023-07-13T06:35:34;20.70;52.20
70734;DHT22;58320;48.804;9.252;2023-07-13T06:38:00;20.60;51.70
70734;DHT22;58320;48.804;9.252;2023-07-13T06:40:26;20.60;51.60
70734;DHT22;58320;48.804;9.252;2023-07-13T06:42:54;20.50;51.80
70734;DHT22;58320;48.804;9.252;2023-07-13T06:45:19;20.60;52.10
70734;DHT22;58320;48.804;9.252;2023-07-13T06:47:45;20.90;51.20
70734;DHT22;58320;48.804;9.252;2023-07-13T06:50:11;21.10;50.10
70734;DHT22;58320;48.804;9.252;2023-07-13T06:52:36;21.30;49.80
70734;DHT22;58320;48.804;9.252;2023-07-13T06:55:03;21.60;48.60
70734;DHT22;58320;48.804;9.252;2023-07-13T06:57:29;21.80;48.90
70734;DHT22;58320;48.804;9.252;2023-07-13T06:59:54;22.00;48.10
70734;DHT22;58320;48.804;9.252;2023-07-13T07:02:20;22.30;48.60
70734;DHT22;58320;48.804;9.252;2023-07-13T07:04:46;22.40;47.00
70734;DHT22;58320;48.804;9.252;2023-07-13T07:07:12;22.20;46.50
70734;DHT22;58320;48.804;9.252;2023-07-13T07:09:37;22.00;46.50
70734;DHT22;58320;48.804;9.252;2023-07-13T07:12:03;21.90;46.00
70734;DHT22;58320;48.804;9.252;2023-07-13T07:14:30;21.70;47.40
70734;DHT22;58320;48.804;9.252;2023-07-13T07:16:56;21.70;47.60
70734;DHT22;58320;48.804;9.252;2023-07-13T07:19:24;21.60;47.20
70734;DHT22;58320;48.804;9.252;2023-07-13T07:21:49;21.70;46.90
70734;DHT22;58320;48.804;9.252;2023-07-13T07:24:15;21.90;45.70
70734;DHT22;58320;48.804;9.252;2023-07-13T07:26:41;22.00;47.00
70734;DHT22;58320;48.804;9.252;2023-07-13T07:29:07;22.20;47.30
70734;DHT22;58320;48.804;9.252;2023-07-13T07:31:33;22.30;46.60
70734;DHT22;58320;48.804;9.252;2023-07-13T07:33:59;22.40;46.70
70734;DHT22;58320;48.804;9.252;2023-07-13T07:36:24;22.50;46.40
70734;DHT22;58320;48.804;9.252;2023-07-13T07:38:50;22.50;45.60
70734;DHT22;58320;48.804;9.252;2023-07-13T07:41:16;22.60;44.80
70734;DHT22;58320;48.804;9.252;2023-07-13T07:43:42;22.70;44.80
70734;DHT22;58320;48.804;9.252;2023-07-13T07:46:07;22.60;44.40
70734;DHT22;58320;48.804;9.252;2023-07-13T07:48:33;22.60;43.70
70734;DHT22;58320;48.804;9.252;2023-07-13T07:50:59;22.50;43.20
70734;DHT22;58320;48.804;9.252;2023-07-13T07:53:24;22.50;43.90
70734;DHT22;58320;48.804;9.252;2023-07-13T07:55:50;22.70;43.60
70734;DHT22;58320;48.804;9.252;2023-07-13T07:58:16;22.70;43.00
70734;DHT22;58320;48.804;9.252;2023-07-13T08:00:42;22.90;43.60
70734;DHT22;58320;48.804;9.252;2023-07-13T08:03:08;22.80;43.60
70734;DHT22;58320;48.804;9.252;2023-07-13T08:05:37;22.90;44.60
70734;DHT22;58320;48.804;9.252;2023-07-13T08:08:03;22.90;43.10
70734;DHT22;58320;48.804;9.252;2023-07-13T08:10:29;22.90;44.70
70734;DHT22;58320;48.804;9.252;2023-07-13T08:12:55;23.10;42.70
70734;DHT22;58320;48.804;9.252;2023-07-13T08:15:21;23.20;43.70
70734;DHT22;58320;48.804;9.252;2023-07-13T08:17:48;23.40;41.40
70734;DHT22;58320;48.804;9.252;2023-07-13T08:20:14;23.40;40.90
70734;DHT22;58320;48.804;9.252;2023-07-13T08:22:40;23.40;40.50
70734;DHT22;58320;48.804;9.252;2023-07-13T08:25:06;23.30;40.90
70734;DHT22;58320;48.804;9.252;2023-07-13T08:27:33;23.40;41.30
70734;DHT22;58320;48.804;9.252;2023-07-13T08:29:59;23.40;40.70
70734;DHT22;58320;48.804;9.252;2023-07-13T08:32:25;23.50;41.60
70734;DHT22;58320;48.804;9.252;2023-07-13T08:34:51;23.70;42.40
70734;DHT22;58320;48.804;9.252;2023-07-13T08:37:18;23.90;41.90
70734;DHT22;58320;48.804;9.252;2023-07-13T08:39:45;24.00;41.40
70734;DHT22;58320;48.804;9.252;2023-07-13T08:42:51;24.10;41.20
70734;DHT22;58320;48.804;9.252;2023-07-13T08:45:20;24.20;42.00
70734;DHT22;58320;48.804;9.252;2023-07-13T08:48:01;24.10;40.20
70734;DHT22;58320;48.804;9.252;2023-07-13T08:53:40;23.90;40.60
70734;DHT22;58320;48.804;9.252;2023-07-13T08:56:25;24.00;40.60
70734;DHT22;58320;48.804;9.252;2023-07-13T08:58:56;24.10;41.00
70734;DHT22;58320;48.804;9.252;2023-07-13T09:01:51;24.10;39.30
70734;DHT22;58320;48.804;9.252;2023-07-13T09:04:59;24.00;39.90
70734;DHT22;58320;48.804;9.252;2023-07-13T09:10:31;24.20;40.30
70734;DHT22;58320;48.804;9.252;2023-07-13T09:16:03;24.70;39.60
70734;DHT22;58320;48.804;9.252;2023-07-13T09:18:36;24.70;39.70
70734;DHT22;58320;48.804;9.252;2023-07-13T09:26:52;24.50;40.60
70734;DHT22;58320;48.804;9.252;2023-07-13T09:29:29;24.60;39.60
70734;DHT22;58320;48.804;9.252;2023-07-13T09:32:02;24.80;39.50
70734;DHT22;58320;48.804;9.252;2023-07-13T09:34:29;24.70;39.50
70734;DHT22;58320;48.804;9.252;2023-07-13T09:36:56;24.90;38.40
70734;DHT22;58320;48.804;9.252;2023-07-13T09:39:41;25.00;38.70
70734;DHT22;58320;48.804;9.252;2023-07-13T09:42:16;25.20;38.40
70734;DHT22;58320;48.804;9.252;2023-07-13T09:44:58;25.30;38.90
70734;DHT22;58320;48.804;9.252;2023-07-13T09:47:30;25.50;38.00
70734;DHT22;58320;48.804;9.252;2023-07-13T09:50:06;25.50;38.70
70734;DHT22;58320;48.804;9.252;2023-07-13T09:52:44;25.60;38.10
70734;DHT22;58320;48.804;9.252;2023-07-13T09:57:52;25.10;39.70
70734;DHT22;58320;48.804;9.252;2023-07-13T10:00:30;25.30;38.80
70734;DHT22;58320;48.804;9.252;2023-07-13T10:05:46;25.70;36.80
70734;DHT22;58320;48.804;9.252;2023-07-13T10:08:18;25.70;37.30
70734;DHT22;58320;48.804;9.252;2023-07-13T10:10:46;25.50;37.50
70734;DHT22;58320;48.804;9.252;2023-07-13T10:13:36;25.40;37.80
70734;DHT22;58320;48.804;9.252;2023-07-13T10:16:04;25.30;38.10
70734;DHT22;58320;48.804;9.252;2023-07-13T10:18:48;25.50;38.30
70734;DHT22;58320;48.804;9.252;2023-07-13T10:21:23;25.90;37.60
70734;DHT22;58320;48.804;9.252;2023-07-13T10:23:57;26.00;37.20
70734;DHT22;58320;48.804;9.252;2023-07-13T10:30:12;26.30;37.90
70734;DHT22;58320;48.804;9.252;2023-07-13T10:32:41;26.70;37.10
70734;DHT22;58320;48.804;9.252;2023-07-13T10:35:11;26.80;36.60
70734;DHT22;58320;48.804;9.252;2023-07-13T10:40:22;27.20;35.70
70734;DHT22;58320;48.804;9.252;2023-07-13T10:42:53;26.80;35.60
70734;DHT22;58320;48.804;9.252;2023-07-13T10:45:22;27.10;35.60
70734;DHT22;58320;48.804;9.252;2023-07-13T10:47:51;27.40;35.60
70734;DHT22;58320;48.804;9.252;2023-07-13T10:50:28;27.70;35.70
70734;DHT22;58320;48.804;9.252;2023-07-13T10:53:16;27.70;36.20
70734;DHT22;58320;48.804;9.252;2023-07-13T11:01:10;28.40;33.80
70734;DHT22;58320;48.804;9.252;2023-07-13T11:03:55;28.50;34.10
70734;DHT22;58320;48.804;9.252;2023-07-13T11:08:56;27.50;35.40
70734;DHT22;58320;48.804;9.252;2023-07-13T11:11:37;27.40;35.70
70734;DHT22;58320;48.804;9.252;2023-07-13T11:14:43;27.50;36.10
70734;DHT22;58320;48.804;9.252;2023-07-13T11:17:53;27.70;35.30
70734;DHT22;58320;48.804;9.252;2023-07-13T11:20:39;27.50;35.20
70734;DHT22;58320;48.804;9.252;2023-07-13T11:23:21;27.60;35.50
70734;DHT22;58320;48.804;9.252;2023-07-13T11:25:53;27.50;35.30
70734;DHT22;58320;48.804;9.252;2023-07-13T11:28:23;27.50;35.30
70734;DHT22;58320;48.804;9.252;2023-07-13T11:33:27;27.50;35.80
70734;DHT22;58320;48.804;9.252;2023-07-13T11:36:21;27.50;35.70
70734;DHT22;58320;48.804;9.252;2023-07-13T11:41:57;29.10;34.20
70734;DHT22;58320;48.804;9.252;2023-07-13T11:44:26;30.70;32.80
70734;DHT22;58320;48.804;9.252;2023-07-13T11:46:58;31.10;30.50
70734;DHT22;58320;48.804;9.252;2023-07-13T11:49:30;31.30;30.40
70734;DHT22;58320;48.804;9.252;2023-07-13T11:51:57;31.70;29.80
70734;DHT22;58320;48.804;9.252;2023-07-13T11:54:42;32.00;29.90
70734;DHT22;58320;48.804;9.252;2023-07-13T11:57:38;32.60;29.60
70734;DHT22;58320;48.804;9.252;2023-07-13T12:00:18;33.00;28.80
70734;DHT22;58320;48.804;9.252;2023-07-13T12:02:51;33.20;28.90
70734;DHT22;58320;48.804;9.252;2023-07-13T12:05:20;33.30;28.10
70734;DHT22;58320;48.804;9.252;2023-07-13T12:07:47;32.80;28.50
70734;DHT22;58320;48.804;9.252;2023-07-13T12:10:21;31.70;29.60
70734;DHT22;58320;48.804;9.252;2023-07-13T12:12:57;31.40;29.90
70734;DHT22;58320;48.804;9.252;2023-07-13T12:15:40;32.10;29.90
70734;DHT22;58320;48.804;9.252;2023-07-13T12:18:22;33.20;28.00
70734;DHT22;58320;48.804;9.252;2023-07-13T12:20:50;33.60;27.90
70734;DHT22;58320;48.804;9.252;2023-07-13T12:23:25;34.00;27.90
70734;DHT22;58320;48.804;9.252;2023-07-13T12:25:52;33.80;28.50
70734;DHT22;58320;48.804;9.252;2023-07-13T12:28:23;33.40;28.90
70734;DHT22;58320;48.804;9.252;2023-07-13T12:31:01;32.90;28.70
70734;DHT22;58320;48.804;9.252;2023-07-13T12:33:29;32.30;29.10
70734;DHT22;58320;48.804;9.252;2023-07-13T12:35:59;31.70;29.20
70734;DHT22;58320;48.804;9.252;2023-07-13T12:38:27;30.80;30.20
70734;DHT22;58320;48.804;9.252;2023-07-13T12:40:54;30.70;30.40
70734;DHT22;58320;48.804;9.252;2023-07-13T12:43:22;30.60;30.30
70734;DHT22;58320;48.804;9.252;2023-07-13T12:45:59;30.10;32.00
70734;DHT22;58320;48.804;9.252;2023-07-13T12:48:27;29.50;32.00
70734;DHT22;58320;48.804;9.252;2023-07-13T12:50:55;29.20;32.00
70734;DHT22;58320;48.804;9.252;2023-07-13T12:53:43;29.10;32.50
70734;DHT22;58320;48.804;9.252;2023-07-13T12:56:22;29.20;31.50
70734;DHT22;58320;48.804;9.252;2023-07-13T12:58:49;29.70;31.30
70734;DHT22;58320;48.804;9.252;2023-07-13T13:01:21;30.70;31.90
70734;DHT22;58320;48.804;9.252;2023-07-13T13:03:52;32.30;29.70
70734;DHT22;58320;48.804;9.252;2023-07-13T13:08:48;33.20;27.50
70734;DHT22;58320;48.804;9.252;2023-07-13T13:11:19;32.90;28.20
70734;DHT22;58320;48.804;9.252;2023-07-13T13:13:46;32.90;28.30
70734;DHT22;58320;48.804;9.252;2023-07-13T13:19:24;33.50;27.40
70734;DHT22;58320;48.804;9.252;2023-07-13T13:21:54;33.80;28.20
70734;DHT22;58320;48.804;9.252;2023-07-13T13:24:23;33.70;26.90
70734;DHT22;58320;48.804;9.252;2023-07-13T13:26:50;34.10;27.10
70734;DHT22;58320;48.804;9.252;2023-07-13T13:29:20;34.70;25.90
70734;DHT22;58320;48.804;9.252;2023-07-13T13:31:49;34.60;26.20
70734;DHT22;58320;48.804;9.252;2023-07-13T13:34:17;34.40;26.40
70734;DHT22;58320;48.804;9.252;2023-07-13T13:36:44;34.30;26.90
70734;DHT22;58320;48.804;9.252;2023-07-13T13:41:44;33.00;27.00
70734;DHT22;58320;48.804;9.252;2023-07-13T13:44:10;32.90;27.40
70734;DHT22;58320;48.804;9.252;2023-07-13T13:46:36;32.40;27.70
70734;DHT22;58320;48.804;9.252;2023-07-13T13:49:02;31.90;28.10
70734;DHT22;58320;48.804;9.252;2023-07-13T13:51:28;32.20;28.10
70734;DHT22;58320;48.804;9.252;2023-07-13T13:53:55;32.90;27.00
70734;DHT22;58320;48.804;9.252;2023-07-13T13:56:20;33.60;26.80
70734;DHT22;58320;48.804;9.252;2023-07-13T13:58:47;33.60;26.70
70734;DHT22;58320;48.804;9.252;2023-07-13T14:01:19;33.20;26.70
70734;DHT22;58320;48.804;9.252;2023-07-13T14:03:46;33.00;27.30
70734;DHT22;58320;48.804;9.252;2023-07-13T14:06:14;33.40;27.40
70734;DHT22;58320;48.804;9.252;2023-07-13T14:08:41;33.80;26.80
70734;DHT22;58320;48.804;9.252;2023-07-13T14:11:13;33.60;27.00
70734;DHT22;58320;48.804;9.252;2023-07-13T14:14:00;32.70;27.20
70734;DHT22;58320;48.804;9.252;2023-07-13T14:16:31;31.20;28.40
70734;DHT22;58320;48.804;9.252;2023-07-13T14:18:59;30.20;29.60
70734;DHT22;58320;48.804;9.252;2023-07-13T14:21:28;29.40;30.50
70734;DHT22;58320;48.804;9.252;2023-07-13T14:23:54;30.00;30.20
70734;DHT22;58320;48.804;9.252;2023-07-13T14:26:23;30.30;30.30
70734;DHT22;58320;48.804;9.252;2023-07-13T14:28:55;30.10;30.00
70734;DHT22;58320;48.804;9.252;2023-07-13T14:31:24;30.00;30.40
70734;DHT22;58320;48.804;9.252;2023-07-13T14:33:51;30.30;30.00
70734;DHT22;58320;48.804;9.252;2023-07-13T14:36:28;31.10;28.90
70734;DHT22;58320;48.804;9.252;2023-07-13T14:39:00;30.70;29.70
70734;DHT22;58320;48.804;9.252;2023-07-13T14:41:31;31.20;29.10
70734;DHT22;58320;48.804;9.252;2023-07-13T14:43:58;31.40;28.40
70734;DHT22;58320;48.804;9.252;2023-07-13T14:46:29;31.40;28.00
70734;DHT22;58320;48.804;9.252;2023-07-13T14:49:03;31.20;28.60
70734;DHT22;58320;48.804;9.252;2023-07-13T14:51:31;30.50;28.80
70734;DHT22;58320;48.804;9.252;2023-07-13T14:54:03;29.40;30.30
70734;DHT22;58320;48.804;9.252;2023-07-13T14:56:30;29.10;31.10
70734;DHT22;58320;48.804;9.252;2023-07-13T14:58:56;30.40;30.30
70734;DHT22;58320;48.804;9.252;2023-07-13T15:01:22;32.10;29.70
70734;DHT22;58320;48.804;9.252;2023-07-13T15:03:50;33.00;28.70
70734;DHT22;58320;48.804;9.252;2023-07-13T15:06:18;33.70;27.40
70734;DHT22;58320;48.804;9.252;2023-07-13T15:08:45;34.40;27.30
70734;DHT22;58320;48.804;9.252;2023-07-13T15:11:12;35.60;26.00
70734;DHT22;58320;48.804;9.252;2023-07-13T15:13:39;36.70;25.00
70734;DHT22;58320;48.804;9.252;2023-07-13T15:16:14;36.60;24.90
70734;DHT22;58320;48.804;9.252;2023-07-13T15:18:43;36.30;25.20
70734;DHT22;58320;48.804;9.252;2023-07-13T15:21:11;36.30;25.30
70734;DHT22;58320;48.804;9.252;2023-07-13T15:23:40;35.50;25.50
70734;DHT22;58320;48.804;9.252;2023-07-13T15:26:15;35.60;25.80
70734;DHT22;58320;48.804;9.252;2023-07-13T15:28:43;36.30;25.20
70734;DHT22;58320;48.804;9.252;2023-07-13T15:31:25;36.20;24.90
70734;DHT22;58320;48.804;9.252;2023-07-13T15:33:55;35.90;25.40
70734;DHT22;58320;48.804;9.252;2023-07-13T15:36:23;36.40;25.60
70734;DHT22;58320;48.804;9.252;2023-07-13T15:38:54;36.10;25.50
70734;DHT22;58320;48.804;9.252;2023-07-13T15:41:23;35.90;25.30
70734;DHT22;58320;48.804;9.252;2023-07-13T15:43:52;36.40;25.30
70734;DHT22;58320;48.804;9.252;2023-07-13T15:46:27;36.30;24.80
70734;DHT22;58320;48.804;9.252;2023-07-13T15:48:54;36.30;24.90
70734;DHT22;58320;48.804;9.252;2023-07-13T15:51:25;36.10;24.80
70734;DHT22;58320;48.804;9.252;2023-07-13T15:53:54;35.80;25.50
70734;DHT22;58320;48.804;9.252;2023-07-13T15:56:35;35.90;25.00
70734;DHT22;58320;48.804;9.252;2023-07-13T15:59:02;35.60;25.60
70734;DHT22;58320;48.804;9.252;2023-07-13T16:01:29;35.60;25.20
70734;DHT22;58320;48.804;9.252;2023-07-13T16:03:56;35.60;25.40
70734;DHT22;58320;48.804;9.252;2023-07-13T16:06:37;34.60;26.20
70734;DHT22;58320;48.804;9.252;2023-07-13T16:09:05;33.50;26.90
70734;DHT22;58320;48.804;9.252;2023-07-13T16:11:41;32.80;27.30
70734;DHT22;58320;48.804;9.252;2023-07-13T16:14:08;32.70;28.30
70734;DHT22;58320;48.804;9.252;2023-07-13T16:16:38;32.80;28.40
70734;DHT22;58320;48.804;9.252;2023-07-13T16:19:05;32.80;28.30
70734;DHT22;58320;48.804;9.252;2023-07-13T16:21:41;32.20;28.30
70734;DHT22;58320;48.804;9.252;2023-07-13T16:24:19;31.40;29.00
70734;DHT22;58320;48.804;9.252;2023-07-13T16:26:47;31.50;29.70
70734;DHT22;58320;48.804;9.252;2023-07-13T16:29:16;32.10;29.10
70734;DHT22;58320;48.804;9.252;2023-07-13T16:32:06;32.20;28.40
70734;DHT22;58320;48.804;9.252;2023-07-13T16:34:38;32.40;28.00